Portada
METAR-TAF:

METAR-TAF

Aeropuertos :

Agen, Francia

latitud: 44-11N, longitud: 000-36E, altitud: 61 m

Observación

El informe se hizo hace 40 minutos, a las 04:00 UTC
Viento 2 kt con dirección variable
Temperatura 18°C
Humedad 68%
Presión 1014 hPa
Visibilidad 10 km o más
sin nubes por debajo de 1500 m y sin presencia de cumulonimbus.

METAR: LFBA 210400Z AUTO VRB02KT CAVOK 18/12 Q1014

Hora: 06:40 (04:40 UTC)

Pronóstico

El informe se hizo hace 14 horas y 40 minutos, a las 14:00 UTC
Pronóstico válido del 20 a las 15 UTC al 20 a las 24 UTC
Viento 8 kt del noroeste
Visibilidad 10 km o más
Nubes dispersas a una altura de 3000 ft
Cielo nuboso a una altura de 4000 ft
Probabilidad 30% :
Temporalmente
del 20 a las 21 UTC al 20 a las 24 UTC
Visibilidad: 4000 m
Cielo nuboso a una altura de 1000 ft
lluvia ligera

TAF: LFBA 201400Z 2015/2024 31008KT 9999 SCT030 BKN040 PROB30 TEMPO 2021/2024 4000 -RA BKN010

Observaciones y pronósticos meteorológicos de más de 4000 aeropuertos (mensajes METAR y TAF).

Los puntos amarillos y rojos representan las estaciones disponibles.

Ponga el ratón en el punto deseado para ver el nombre de la estación.

Haga clic para ver las observaciones y los pronósticos meteorológicos.

Para cambiar el mapa : haga clic en los botones verdes con una cruz de color negro para hacer un zoom, en el botón verde con un guión para alejar o en las flechas verdes para mapas adyacentes.


METAR-TAF: